createdAt,value
2022-09-17T00:01:46.978Z,9.30
2022-09-17T00:04:16.373Z,9.30
2022-09-17T00:06:43.299Z,9.30
2022-09-17T00:09:12.575Z,9.30
2022-09-17T00:11:44.589Z,9.40
2022-09-17T00:14:16.394Z,9.40
2022-09-17T00:16:48.022Z,9.50
2022-09-17T00:19:23.069Z,9.60
2022-09-17T00:21:50.463Z,9.70
2022-09-17T00:24:22.943Z,9.80
2022-09-17T00:26:50.680Z,9.90
2022-09-17T00:29:17.673Z,9.90
2022-09-17T00:31:44.686Z,10.00
2022-09-17T00:34:12.243Z,10.10
2022-09-17T00:36:40.257Z,10.20
2022-09-17T00:39:09.646Z,10.20
2022-09-17T00:41:37.947Z,10.30
2022-09-17T00:44:44.222Z,10.30
2022-09-17T00:47:21.021Z,10.40
2022-09-17T00:49:50.296Z,10.40
2022-09-17T00:52:26.314Z,10.40
2022-09-17T00:55:00.174Z,10.40
2022-09-17T00:57:28.316Z,10.40
2022-09-17T00:59:57.707Z,10.40
2022-09-17T01:02:25.909Z,10.30
2022-09-17T01:04:52.926Z,10.40
2022-09-17T01:07:28.236Z,10.50
2022-09-17T01:10:02.985Z,10.60
2022-09-17T01:12:59.112Z,10.60
2022-09-17T01:15:35.375Z,10.50
2022-09-17T01:18:05.149Z,10.50
2022-09-17T01:21:13.072Z,10.50
2022-09-17T01:23:45.801Z,10.40
2022-09-17T01:26:30.795Z,10.40
2022-09-17T01:29:07.060Z,10.40
2022-09-17T01:31:43.172Z,10.40
2022-09-17T01:34:28.975Z,10.40
2022-09-17T01:37:08.341Z,10.50
2022-09-17T01:40:00.888Z,10.60
2022-09-17T01:42:51.527Z,10.60
2022-09-17T01:45:45.287Z,10.60
2022-09-17T01:48:17.163Z,10.50
2022-09-17T01:51:08.099Z,10.40
2022-09-17T01:54:00.501Z,10.40
2022-09-17T01:56:33.970Z,10.40
2022-09-17T01:59:11.415Z,10.20
2022-09-17T02:01:42.095Z,10.20
2022-09-17T02:04:19.566Z,10.10
2022-09-17T02:06:59.788Z,10.00
2022-09-17T02:09:45.790Z,9.90
2022-09-17T02:12:18.326Z,9.80
2022-09-17T02:14:58.489Z,9.80
2022-09-17T02:17:29.313Z,9.70
2022-09-17T02:19:56.744Z,9.80
2022-09-17T02:22:43.996Z,9.80
2022-09-17T02:25:37.846Z,9.90
2022-09-17T02:28:17.442Z,9.80
2022-09-17T02:30:44.610Z,9.80
2022-09-17T02:33:15.874Z,9.70
2022-09-17T02:35:47.147Z,9.70
2022-09-17T02:38:14.704Z,9.60
2022-09-17T02:40:56.643Z,9.60
2022-09-17T02:43:50.002Z,9.60
2022-09-17T02:46:35.230Z,9.70
2022-09-17T02:49:05.480Z,9.90
2022-09-17T02:51:53.652Z,10.00
2022-09-17T02:54:35.452Z,10.00
2022-09-17T02:57:30.047Z,10.00
2022-09-17T03:00:05.865Z,10.00
2022-09-17T03:02:40.365Z,9.90
2022-09-17T03:05:11.942Z,9.90
2022-09-17T03:07:39.263Z,9.90
2022-09-17T03:10:06.612Z,9.90
2022-09-17T03:12:34.027Z,10.00
2022-09-17T03:15:00.999Z,10.00
2022-09-17T03:17:27.829Z,10.00
2022-09-17T03:19:54.760Z,9.90
2022-09-17T03:22:21.682Z,10.00
2022-09-17T03:24:48.701Z,10.10
2022-09-17T03:27:15.895Z,10.10
2022-09-17T03:29:45.452Z,10.10
2022-09-17T03:32:12.449Z,10.00
2022-09-17T03:34:39.336Z,9.90
2022-09-17T03:37:06.338Z,9.60
2022-09-17T03:39:33.444Z,9.40
2022-09-17T03:42:00.507Z,9.30
2022-09-17T03:44:29.631Z,9.20
2022-09-17T03:46:56.880Z,9.10
2022-09-17T03:49:29.268Z,9.00
2022-09-17T03:51:58.363Z,9.00
2022-09-17T03:54:27.340Z,9.00
2022-09-17T03:56:54.220Z,9.00
2022-09-17T03:59:21.357Z,9.00
2022-09-17T04:01:48.359Z,9.20
2022-09-17T04:04:15.468Z,9.30
2022-09-17T04:06:42.387Z,9.40
2022-09-17T04:09:09.409Z,9.40
2022-09-17T04:11:36.332Z,9.40
2022-09-17T04:14:03.266Z,9.40
2022-09-17T04:16:30.239Z,9.40
2022-09-17T04:18:57.265Z,9.40
2022-09-17T04:21:26.343Z,9.30
2022-09-17T04:23:53.546Z,9.30
2022-09-17T04:26:22.761Z,9.40
2022-09-17T04:28:52.057Z,9.40
2022-09-17T04:31:19.110Z,9.40
2022-09-17T04:33:46.035Z,9.40
2022-09-17T04:36:12.960Z,9.50
2022-09-17T04:38:39.901Z,9.60
2022-09-17T04:41:09.352Z,9.60
2022-09-17T04:43:36.293Z,9.60
2022-09-17T04:46:03.448Z,9.60
2022-09-17T04:48:32.549Z,9.60
2022-09-17T04:50:59.556Z,9.60
2022-09-17T04:53:26.513Z,9.50
2022-09-17T04:55:53.546Z,9.30
2022-09-17T04:58:22.703Z,9.20
2022-09-17T05:00:49.862Z,9.10
2022-09-17T05:03:17.074Z,8.90
2022-09-17T05:05:48.780Z,8.80
2022-09-17T05:08:18.311Z,8.70
2022-09-17T05:10:47.396Z,8.60
2022-09-17T05:13:14.704Z,8.50
2022-09-17T05:15:41.645Z,8.40
2022-09-17T05:18:08.590Z,8.40
2022-09-17T05:20:35.632Z,8.40
2022-09-17T05:23:05.171Z,8.50
2022-09-17T05:25:32.572Z,8.60
2022-09-17T05:28:01.482Z,8.60
2022-09-17T05:30:30.917Z,8.60
2022-09-17T05:33:07.464Z,8.70
2022-09-17T05:35:36.599Z,8.80
2022-09-17T05:38:07.950Z,8.90
2022-09-17T05:40:38.530Z,9.10
2022-09-17T05:43:12.103Z,9.20
2022-09-17T05:45:43.978Z,9.30
2022-09-17T05:48:15.490Z,9.40
2022-09-17T05:50:45.062Z,9.50
2022-09-17T05:53:14.429Z,9.60
2022-09-17T05:55:41.416Z,9.70
2022-09-17T05:58:16.572Z,9.80
2022-09-17T06:00:48.027Z,9.70
2022-09-17T06:03:17.132Z,9.70
2022-09-17T06:05:52.218Z,9.50
2022-09-17T06:08:24.941Z,9.50
2022-09-17T06:10:52.007Z,9.60
2022-09-17T06:13:20.009Z,9.60
2022-09-17T06:15:52.367Z,9.50
2022-09-17T06:18:20.629Z,9.40
2022-09-17T06:21:01.712Z,9.30
2022-09-17T06:23:35.186Z,9.40
2022-09-17T06:26:05.947Z,9.50
2022-09-17T06:28:33.732Z,9.70
2022-09-17T06:31:05.876Z,9.90
2022-09-17T06:33:36.295Z,10.10
2022-09-17T06:36:13.379Z,10.30
2022-09-17T06:38:41.595Z,10.50
2022-09-17T06:41:08.635Z,10.60
2022-09-17T06:43:35.519Z,10.80
2022-09-17T06:46:06.169Z,10.90
2022-09-17T06:48:38.947Z,11.20
2022-09-17T06:51:08.395Z,11.60
2022-09-17T06:53:39.247Z,11.90
2022-09-17T06:56:09.757Z,11.80
2022-09-17T06:58:37.748Z,11.90
2022-09-17T07:01:05.972Z,11.70
2022-09-17T07:03:36.326Z,11.70
2022-09-17T07:06:12.537Z,11.50
2022-09-17T07:08:40.354Z,11.40
2022-09-17T07:11:10.120Z,11.50
2022-09-17T07:13:39.251Z,11.60
2022-09-17T07:16:08.889Z,11.80
2022-09-17T07:18:35.918Z,11.90
2022-09-17T07:21:08.925Z,12.00
2022-09-17T07:23:37.556Z,12.30
2022-09-17T07:26:13.565Z,12.50
2022-09-17T07:28:41.550Z,12.50
2022-09-17T07:31:13.765Z,12.40
2022-09-17T07:33:45.485Z,12.20
2022-09-17T07:36:18.246Z,12.00
2022-09-17T07:38:45.527Z,12.00
2022-09-17T07:41:17.643Z,11.90
2022-09-17T07:43:47.312Z,11.80
2022-09-17T07:46:18.744Z,11.80
2022-09-17T07:48:47.606Z,11.90
2022-09-17T07:51:16.650Z,11.80
2022-09-17T07:53:46.699Z,12.00
2022-09-17T07:56:19.371Z,11.80
2022-09-17T07:58:46.397Z,11.70
2022-09-17T08:01:16.662Z,11.50
2022-09-17T08:03:56.230Z,11.50
2022-09-17T08:06:28.485Z,11.70
2022-09-17T08:09:02.809Z,11.90
2022-09-17T08:11:52.207Z,12.00
2022-09-17T08:14:23.575Z,11.90
2022-09-17T08:16:55.183Z,11.90
2022-09-17T08:19:22.366Z,12.00
2022-09-17T08:21:52.220Z,11.90
2022-09-17T08:24:19.128Z,11.80
2022-09-17T08:26:46.098Z,12.10
2022-09-17T08:29:13.301Z,12.20
2022-09-17T08:31:42.465Z,12.60
2022-09-17T08:34:10.036Z,13.20
2022-09-17T08:36:39.136Z,13.50
2022-09-17T08:39:06.030Z,13.60
2022-09-17T08:42:05.141Z,13.90
2022-09-17T08:44:52.100Z,13.80
2022-09-17T08:47:33.453Z,13.40
2022-09-17T08:50:04.340Z,13.40
2022-09-17T08:52:50.005Z,13.40
2022-09-17T08:55:36.518Z,13.50
2022-09-17T08:58:15.477Z,13.70
2022-09-17T09:00:47.565Z,13.80
2022-09-17T09:03:29.298Z,13.60
2022-09-17T09:05:56.588Z,13.70
2022-09-17T09:08:35.487Z,13.50
2022-09-17T09:11:06.160Z,13.50
2022-09-17T09:13:50.979Z,13.30
2022-09-17T09:16:28.340Z,13.10
2022-09-17T09:19:01.170Z,13.20
2022-09-17T09:21:29.660Z,13.10
2022-09-17T09:24:26.216Z,13.20
2022-09-17T09:27:02.284Z,13.20
2022-09-17T09:29:54.079Z,13.20
2022-09-17T09:32:42.735Z,13.50
2022-09-17T09:35:18.433Z,13.80
2022-09-17T09:38:09.780Z,13.70
2022-09-17T09:40:51.660Z,13.70
2022-09-17T09:43:59.917Z,13.40
2022-09-17T09:46:44.617Z,13.80
2022-09-17T09:49:26.724Z,14.70
2022-09-17T09:52:27.966Z,14.70
2022-09-17T09:55:15.944Z,14.70
2022-09-17T09:57:51.272Z,14.80
2022-09-17T10:00:40.254Z,15.00
2022-09-17T10:03:13.935Z,14.90
2022-09-17T10:05:52.235Z,14.90
2022-09-17T10:08:19.962Z,14.80
2022-09-17T10:11:04.473Z,14.70
2022-09-17T10:13:36.292Z,14.50
2022-09-17T10:16:20.556Z,14.40
2022-09-17T10:18:51.734Z,14.40
2022-09-17T10:21:31.092Z,14.50
2022-09-17T10:24:05.478Z,14.60
2022-09-17T10:26:38.943Z,14.50
2022-09-17T10:29:14.620Z,14.50
2022-09-17T10:31:53.872Z,15.00
2022-09-17T10:34:26.070Z,15.30
2022-09-17T10:36:54.695Z,15.10
2022-09-17T10:39:27.595Z,15.10
2022-09-17T10:42:04.939Z,15.30
2022-09-17T10:44:58.306Z,15.30
2022-09-17T10:47:41.430Z,14.80
2022-09-17T10:50:20.320Z,14.90
2022-09-17T10:52:50.504Z,15.10
2022-09-17T10:55:23.623Z,15.50
2022-09-17T10:57:55.202Z,15.60
2022-09-17T11:00:23.449Z,15.30
2022-09-17T11:02:56.571Z,15.00
2022-09-17T11:05:26.705Z,14.60
2022-09-17T11:08:23.855Z,14.50
2022-09-17T11:11:29.322Z,14.60
2022-09-17T11:14:33.646Z,14.80
2022-09-17T11:17:25.625Z,15.30
2022-09-17T11:19:59.352Z,15.40
2022-09-17T11:23:08.268Z,15.70
2022-09-17T11:25:42.878Z,15.70
2022-09-17T11:28:43.610Z,15.60
2022-09-17T11:31:48.380Z,15.70
2022-09-17T11:34:43.154Z,16.00
2022-09-17T11:37:59.612Z,16.10
2022-09-17T11:40:38.155Z,15.70
2022-09-17T11:43:31.459Z,15.80
2022-09-17T11:46:03.543Z,16.10
2022-09-17T11:48:49.048Z,16.10
2022-09-17T11:51:34.526Z,15.70
2022-09-17T11:54:21.876Z,15.80
2022-09-17T11:56:55.251Z,16.10
2022-09-17T11:59:34.077Z,16.00
2022-09-17T12:02:28.283Z,15.70
2022-09-17T12:05:03.495Z,15.50
2022-09-17T12:07:39.560Z,15.50
2022-09-17T12:10:32.418Z,15.50
2022-09-17T12:13:37.049Z,15.80
2022-09-17T12:16:25.027Z,16.00
2022-09-17T12:19:22.836Z,16.30
2022-09-17T12:21:52.599Z,16.50
2022-09-17T12:24:29.842Z,16.60
2022-09-17T12:27:50.576Z,16.50
2022-09-17T12:30:25.845Z,16.70
2022-09-17T12:33:14.035Z,16.80
2022-09-17T12:36:28.870Z,16.90
2022-09-17T12:39:21.406Z,17.00
2022-09-17T12:42:12.211Z,16.90
2022-09-17T12:45:20.319Z,16.90
2022-09-17T12:48:34.564Z,16.70
2022-09-17T12:51:27.537Z,16.40
2022-09-17T12:54:32.218Z,16.40
2022-09-17T12:57:16.070Z,17.00
2022-09-17T13:00:06.966Z,17.50
2022-09-17T13:03:07.464Z,17.60
2022-09-17T13:06:02.858Z,17.20
2022-09-17T13:09:01.544Z,17.10
2022-09-17T13:11:52.685Z,17.40
2022-09-17T13:14:41.873Z,17.20
2022-09-17T13:17:14.166Z,16.60
2022-09-17T13:19:56.218Z,16.10
2022-09-17T13:22:33.672Z,15.60
2022-09-17T13:25:11.696Z,15.10
2022-09-17T13:27:45.978Z,13.60
2022-09-17T13:30:15.584Z,11.80
2022-09-17T13:32:44.199Z,11.10
2022-09-17T13:35:16.447Z,10.90
2022-09-17T13:37:52.768Z,10.90
2022-09-17T13:40:24.646Z,11.00
2022-09-17T13:43:09.707Z,11.20
2022-09-17T13:46:01.557Z,11.40
2022-09-17T13:48:31.830Z,11.50
2022-09-17T13:51:33.235Z,11.80
2022-09-17T13:54:05.407Z,12.20
2022-09-17T13:56:51.713Z,12.40
2022-09-17T13:59:28.012Z,12.50
2022-09-17T14:02:28.656Z,12.50
2022-09-17T14:05:34.169Z,12.50
2022-09-17T14:08:31.263Z,12.60
2022-09-17T14:11:03.023Z,12.60
2022-09-17T14:13:36.332Z,12.80
2022-09-17T14:16:29.149Z,12.90
2022-09-17T14:19:16.320Z,12.90
2022-09-17T14:21:46.474Z,13.10
2022-09-17T14:24:25.134Z,13.40
2022-09-17T14:27:07.815Z,13.70
2022-09-17T14:29:43.714Z,14.00
2022-09-17T14:32:22.058Z,14.30
2022-09-17T14:34:49.942Z,14.30
2022-09-17T14:37:21.069Z,14.30
2022-09-17T14:39:49.389Z,14.40
2022-09-17T14:42:24.708Z,14.80
2022-09-17T14:45:02.505Z,15.00
2022-09-17T14:47:29.577Z,15.30
2022-09-17T14:50:23.462Z,15.40
2022-09-17T14:52:54.762Z,15.30
2022-09-17T14:55:21.891Z,15.50
2022-09-17T14:57:54.969Z,15.80
2022-09-17T15:00:37.832Z,16.20
2022-09-17T15:03:06.227Z,16.10
2022-09-17T15:05:38.722Z,15.70
2022-09-17T15:08:16.681Z,15.80
2022-09-17T15:11:07.905Z,16.00
2022-09-17T15:13:44.504Z,15.90
2022-09-17T15:16:22.390Z,15.40
2022-09-17T15:19:00.372Z,15.30
2022-09-17T15:21:53.008Z,15.20
2022-09-17T15:24:23.140Z,15.10
2022-09-17T15:26:55.349Z,15.00
2022-09-17T15:29:26.574Z,14.70
2022-09-17T15:31:56.750Z,14.60
2022-09-17T15:34:26.963Z,14.60
2022-09-17T15:37:17.408Z,14.40
2022-09-17T15:39:53.134Z,14.40
2022-09-17T15:42:30.445Z,14.30
2022-09-17T15:45:19.813Z,14.10
2022-09-17T15:48:01.194Z,13.70
2022-09-17T15:50:31.968Z,13.70
2022-09-17T15:53:11.716Z,13.80
2022-09-17T15:55:41.493Z,13.90
2022-09-17T15:58:37.145Z,13.90
2022-09-17T16:01:16.619Z,14.00
2022-09-17T16:03:43.775Z,13.90
2022-09-17T16:06:19.755Z,13.80
2022-09-17T16:09:00.915Z,13.70
2022-09-17T16:11:33.215Z,13.60
2022-09-17T16:14:01.418Z,13.50
2022-09-17T16:16:34.441Z,13.50
2022-09-17T16:19:02.101Z,13.50
2022-09-17T16:21:32.191Z,13.50
2022-09-17T16:23:59.377Z,13.70
2022-09-17T16:26:35.149Z,13.80
2022-09-17T16:29:16.132Z,13.90
2022-09-17T16:31:48.130Z,13.80
2022-09-17T16:34:15.434Z,13.70
2022-09-17T16:36:42.378Z,13.50
2022-09-17T16:39:12.099Z,13.30
2022-09-17T16:41:39.199Z,13.20
2022-09-17T16:44:06.267Z,13.10
2022-09-17T16:46:33.369Z,13.00
2022-09-17T16:49:00.809Z,12.80
2022-09-17T16:51:28.086Z,12.60
2022-09-17T16:56:35.644Z,12.30
2022-09-17T16:59:07.801Z,12.10
2022-09-17T17:01:35.118Z,11.90
2022-09-17T17:04:02.213Z,11.80
2022-09-17T17:06:29.201Z,11.70
2022-09-17T17:08:57.296Z,11.70
2022-09-17T17:11:28.233Z,11.70
2022-09-17T17:13:59.010Z,11.80
2022-09-17T17:16:33.000Z,11.90
2022-09-17T17:19:00.256Z,11.90
2022-09-17T17:21:27.298Z,11.90
2022-09-17T17:23:54.793Z,11.90
2022-09-17T17:26:21.910Z,12.00
2022-09-17T17:28:49.202Z,11.90
2022-09-17T17:31:16.183Z,11.90
2022-09-17T17:33:46.435Z,11.90
2022-09-17T17:36:14.114Z,11.90
2022-09-17T17:38:41.260Z,11.90
2022-09-17T17:41:14.112Z,11.80
2022-09-17T17:43:41.834Z,11.90
2022-09-17T17:46:11.275Z,11.90
2022-09-17T17:48:39.754Z,11.90
2022-09-17T17:51:09.250Z,11.90
2022-09-17T17:53:36.933Z,11.90
2022-09-17T17:56:09.136Z,11.90
2022-09-17T17:58:36.970Z,11.90
2022-09-17T18:01:12.670Z,11.80
2022-09-17T18:03:42.616Z,11.90
2022-09-17T18:06:10.020Z,11.80
2022-09-17T18:08:41.417Z,11.80
2022-09-17T18:11:10.507Z,11.80
2022-09-17T18:13:40.544Z,11.80
2022-09-17T18:16:12.185Z,11.70
2022-09-17T18:18:45.219Z,11.70
2022-09-17T18:21:21.035Z,11.70
2022-09-17T18:23:56.772Z,11.60
2022-09-17T18:26:28.166Z,11.60
2022-09-17T18:28:57.905Z,11.60
2022-09-17T18:31:31.127Z,11.60
2022-09-17T18:34:03.519Z,11.60
2022-09-17T18:36:33.004Z,11.60
2022-09-17T18:41:52.754Z,11.40
2022-09-17T18:44:22.561Z,11.40
2022-09-17T18:46:51.245Z,11.40
2022-09-17T18:49:18.610Z,11.40
2022-09-17T18:51:48.252Z,11.40
2022-09-17T18:54:15.395Z,11.40
2022-09-17T18:56:42.874Z,11.40
2022-09-17T18:59:10.897Z,11.40
2022-09-17T19:01:40.630Z,11.40
2022-09-17T19:04:08.426Z,11.40
2022-09-17T19:06:36.066Z,11.30
2022-09-17T19:09:05.447Z,11.20
2022-09-17T19:11:36.674Z,11.10
2022-09-17T19:14:04.196Z,11.10
2022-09-17T19:16:31.474Z,11.10
2022-09-17T19:18:58.940Z,11.10
2022-09-17T19:21:25.966Z,11.10
2022-09-17T19:23:54.062Z,11.10
2022-09-17T19:26:23.905Z,11.20
2022-09-17T19:28:55.803Z,11.20
2022-09-17T19:31:25.713Z,11.30
2022-09-17T19:33:56.455Z,11.30
2022-09-17T19:36:23.717Z,11.40
2022-09-17T19:38:50.883Z,11.40
2022-09-17T19:41:21.566Z,11.40
2022-09-17T19:43:54.891Z,11.40
2022-09-17T19:48:58.052Z,11.30
2022-09-17T19:50:11.207Z,11.30
2022-09-17T19:52:38.505Z,10.90
2022-09-17T19:55:09.556Z,9.90
2022-09-17T19:57:40.055Z,8.90
2022-09-17T20:00:09.335Z,8.70
2022-09-17T20:02:39.447Z,8.60
2022-09-17T20:05:09.374Z,8.60
2022-09-17T20:07:36.768Z,8.40
2022-09-17T20:10:06.403Z,8.40
2022-09-17T20:12:36.106Z,8.40
2022-09-17T20:15:05.642Z,8.40
2022-09-17T20:17:33.366Z,8.40
2022-09-17T20:20:00.731Z,8.40
2022-09-17T20:22:31.114Z,8.30
2022-09-17T20:25:00.785Z,8.10
2022-09-17T20:27:30.717Z,8.00
2022-09-17T20:30:05.850Z,7.90
2022-09-17T20:32:36.358Z,7.80
2022-09-17T20:35:03.676Z,7.70
2022-09-17T20:38:12.325Z,7.80
2022-09-17T20:40:21.240Z,7.80
2022-09-17T20:42:48.668Z,7.80
2022-09-17T20:45:21.505Z,7.80
2022-09-17T20:47:50.442Z,7.70
2022-09-17T20:50:20.135Z,7.70
2022-09-17T20:52:47.438Z,7.70
2022-09-17T20:55:19.390Z,7.80
2022-09-17T20:57:46.729Z,7.80
2022-09-17T21:00:21.342Z,7.80
2022-09-17T21:02:54.243Z,7.80
2022-09-17T21:05:24.967Z,7.90
2022-09-17T21:07:52.452Z,8.00
2022-09-17T21:10:19.861Z,8.10
2022-09-17T21:12:47.130Z,8.10
2022-09-17T21:15:21.452Z,8.20
2022-09-17T21:17:51.506Z,8.20
2022-09-17T21:20:18.896Z,8.20
2022-09-17T21:22:46.447Z,8.20
2022-09-17T21:25:15.184Z,8.30
2022-09-17T21:27:42.627Z,8.30
2022-09-17T21:30:12.896Z,8.40
2022-09-17T21:32:42.730Z,8.40
2022-09-17T21:35:09.815Z,8.50
2022-09-17T21:37:39.313Z,8.40
2022-09-17T21:40:09.530Z,8.50
2022-09-17T21:42:39.289Z,8.60
2022-09-17T21:45:09.472Z,8.50
2022-09-17T21:47:41.554Z,8.50
2022-09-17T21:50:10.833Z,8.40
2022-09-17T21:52:40.898Z,8.30
2022-09-17T21:55:09.621Z,8.10
2022-09-17T21:57:38.934Z,7.90
2022-09-17T22:00:09.232Z,7.80
2022-09-17T22:02:41.715Z,7.80
2022-09-17T22:05:09.062Z,7.70
2022-09-17T22:22:40.708Z,7.60
2022-09-17T22:25:10.993Z,7.60
2022-09-17T22:27:38.929Z,7.50
2022-09-17T22:30:06.440Z,7.60
2022-09-17T22:32:36.874Z,7.60
2022-09-17T22:35:04.069Z,7.70
2022-09-17T22:37:33.747Z,7.70
2022-09-17T22:40:03.296Z,7.80
2022-09-17T22:42:30.314Z,7.70
2022-09-17T22:45:01.938Z,7.60
2022-09-17T22:47:28.925Z,7.60
2022-09-17T22:49:56.007Z,7.50
2022-09-17T22:52:23.020Z,7.40
2022-09-17T22:54:54.814Z,7.30
2022-09-17T22:57:24.439Z,7.20
2022-09-17T22:59:51.446Z,7.20
2022-09-17T23:02:18.751Z,7.20
2022-09-17T23:04:45.800Z,7.20
2022-09-17T23:07:12.845Z,7.30
2022-09-17T23:09:44.550Z,7.40
2022-09-17T23:12:11.713Z,7.50
2022-09-17T23:14:38.801Z,7.60
2022-09-17T23:17:05.896Z,7.70
2022-09-17T23:19:33.060Z,7.80
2022-09-17T23:22:02.153Z,7.90
2022-09-17T23:24:34.443Z,8.00
2022-09-17T23:27:01.676Z,8.10
2022-09-17T23:29:28.899Z,8.20
2022-09-17T23:31:56.204Z,8.30
2022-09-17T23:34:23.085Z,8.40
2022-09-17T23:36:50.112Z,8.50
2022-09-17T23:39:19.889Z,8.50
2022-09-17T23:41:49.355Z,8.50
2022-09-17T23:44:16.590Z,8.50
2022-09-17T23:46:46.631Z,8.50
2022-09-17T23:49:14.766Z,8.50
2022-09-17T23:51:42.424Z,8.50
2022-09-17T23:54:10.377Z,8.60
2022-09-17T23:56:42.604Z,8.60
2022-09-17T23:59:12.929Z,8.60
